createdAt,value
2019-02-22T00:00:52.346Z,-11.01
2019-02-22T00:01:52.335Z,-10.97
2019-02-22T00:02:52.357Z,-10.94
2019-02-22T00:03:52.309Z,-11.00
2019-02-22T00:04:52.323Z,-11.06
2019-02-22T00:05:52.285Z,-11.00
2019-02-22T00:06:52.290Z,-11.03
2019-02-22T00:07:52.271Z,-11.06
2019-02-22T00:08:52.298Z,-10.98
2019-02-22T00:09:52.251Z,-11.00
2019-02-22T00:10:52.246Z,-11.00
2019-02-22T00:11:52.262Z,-11.04
2019-02-22T00:12:52.241Z,-11.06
2019-02-22T00:13:52.207Z,-11.12
2019-02-22T00:14:52.241Z,-11.12
2019-02-22T00:15:52.190Z,-11.09
2019-02-22T00:16:52.182Z,-11.11
2019-02-22T00:17:52.171Z,-11.13
2019-02-22T00:18:52.187Z,-11.09
2019-02-22T00:19:52.150Z,-11.04
2019-02-22T00:20:52.178Z,-11.01
2019-02-22T00:22:02.550Z,-11.12
2019-02-22T00:22:52.115Z,-11.12
2019-02-22T00:23:52.108Z,-11.11
2019-02-22T00:24:52.102Z,-11.19
2019-02-22T00:25:52.089Z,-11.16
2019-02-22T00:26:52.130Z,-11.18
2019-02-22T00:27:52.067Z,-11.22
2019-02-22T00:28:52.054Z,-11.22
2019-02-22T00:29:52.074Z,-11.09
2019-02-22T00:30:52.041Z,-11.12
2019-02-22T00:31:52.045Z,-11.16
2019-02-22T00:32:52.037Z,-11.18
2019-02-22T00:33:52.018Z,-11.16
2019-02-22T00:34:52.127Z,-11.23
2019-02-22T00:35:52.151Z,-11.12
2019-02-22T00:36:52.164Z,-11.16
2019-02-22T00:37:51.997Z,-11.18
2019-02-22T00:38:51.957Z,-11.23
2019-02-22T00:39:51.976Z,-11.12
2019-02-22T00:40:51.939Z,-11.04
2019-02-22T00:41:51.926Z,-11.18
2019-02-22T00:42:51.943Z,-11.03
2019-02-22T00:43:51.982Z,-11.09
2019-02-22T00:44:51.901Z,-11.15
2019-02-22T00:45:51.896Z,-11.15
2019-02-22T00:46:51.876Z,-11.16
2019-02-22T00:47:51.891Z,-11.08
2019-02-22T00:48:51.857Z,-11.15
2019-02-22T00:49:51.891Z,-11.15
2019-02-22T00:50:51.841Z,-11.08
2019-02-22T00:51:51.829Z,-11.16
2019-02-22T00:53:02.277Z,-11.13
2019-02-22T00:53:51.847Z,-11.18
2019-02-22T00:54:51.825Z,-11.18
2019-02-22T00:55:51.833Z,-11.13
2019-02-22T00:56:51.778Z,-11.18
2019-02-22T00:57:51.772Z,-11.21
2019-02-22T00:58:51.762Z,-11.16
2019-02-22T00:59:51.753Z,-11.21
2019-02-22T01:00:51.748Z,-11.13
2019-02-22T01:01:51.767Z,-11.18
2019-02-22T01:02:51.715Z,-11.16
2019-02-22T01:03:51.714Z,-11.18
2019-02-22T01:04:51.698Z,-11.21
2019-02-22T01:05:51.701Z,-11.18
2019-02-22T01:06:51.680Z,-11.18
2019-02-22T01:07:51.736Z,-11.15
2019-02-22T01:08:51.664Z,-11.18
2019-02-22T01:09:51.653Z,-11.15
2019-02-22T01:10:51.635Z,-11.16
2019-02-22T01:11:51.643Z,-11.12
2019-02-22T01:12:51.619Z,-11.19
2019-02-22T01:13:51.657Z,-11.22
2019-02-22T01:14:51.609Z,-11.27
2019-02-22T01:15:51.594Z,-11.27
2019-02-22T01:16:51.574Z,-11.26
2019-02-22T01:17:51.576Z,-11.26
2019-02-22T01:18:51.562Z,-11.22
2019-02-22T01:19:51.582Z,-11.26
2019-02-22T01:20:54.342Z,-11.27
2019-02-22T01:21:51.525Z,-11.29
2019-02-22T01:22:51.528Z,-11.26
2019-02-22T01:24:01.597Z,-11.34
2019-02-22T01:24:51.497Z,-11.32
2019-02-22T01:25:51.531Z,-11.33
2019-02-22T01:26:51.483Z,-11.34
2019-02-22T01:27:51.473Z,-11.39
2019-02-22T01:28:51.471Z,-11.39
2019-02-22T01:29:51.461Z,-11.32
2019-02-22T01:30:51.437Z,-11.33
2019-02-22T01:31:51.561Z,-11.33
2019-02-22T01:32:51.609Z,-11.39
2019-02-22T01:33:54.005Z,-11.40
2019-02-22T01:34:51.421Z,-11.36
2019-02-22T01:35:51.390Z,-11.37
2019-02-22T01:36:51.398Z,-11.50
2019-02-22T01:37:51.409Z,-11.47
2019-02-22T01:38:51.365Z,-11.47
2019-02-22T01:39:51.359Z,-11.53
2019-02-22T01:40:51.340Z,-11.48
2019-02-22T01:41:51.985Z,-11.51
2019-02-22T01:42:51.321Z,-11.45
2019-02-22T01:43:51.502Z,-11.44
2019-02-22T01:44:51.299Z,-11.48
2019-02-22T01:45:51.283Z,-11.50
2019-02-22T01:46:51.277Z,-11.47
2019-02-22T01:47:51.265Z,-11.48
2019-02-22T01:48:51.262Z,-11.47
2019-02-22T01:49:51.306Z,-11.44
2019-02-22T01:50:51.233Z,-11.44
2019-02-22T01:51:51.233Z,-11.53
2019-02-22T01:52:51.221Z,-11.44
2019-02-22T01:53:53.879Z,-11.54
2019-02-22T01:55:01.546Z,-11.53
2019-02-22T01:55:51.188Z,-11.51
2019-02-22T01:56:51.176Z,-11.47
2019-02-22T01:57:51.171Z,-11.51
2019-02-22T01:58:51.162Z,-11.47
2019-02-22T01:59:51.177Z,-11.54
2019-02-22T02:00:51.174Z,-11.50
2019-02-22T02:01:51.128Z,-11.48
2019-02-22T02:02:51.145Z,-11.50
2019-02-22T02:03:51.108Z,-11.58
2019-02-22T02:04:51.101Z,-11.57
2019-02-22T02:05:51.105Z,-11.53
2019-02-22T02:06:51.101Z,-11.53
2019-02-22T02:07:51.062Z,-11.50
2019-02-22T02:08:51.062Z,-11.57
2019-02-22T02:09:51.045Z,-11.55
2019-02-22T02:10:54.107Z,-11.53
2019-02-22T02:11:51.025Z,-11.48
2019-02-22T02:12:51.061Z,-11.50
2019-02-22T02:13:51.003Z,-11.40
2019-02-22T02:14:50.996Z,-11.51
2019-02-22T02:15:50.995Z,-11.50
2019-02-22T02:16:50.995Z,-11.32
2019-02-22T02:17:50.966Z,-11.40
2019-02-22T02:18:50.999Z,-11.50
2019-02-22T02:19:50.945Z,-11.53
2019-02-22T02:20:50.960Z,-11.51
2019-02-22T02:21:50.930Z,-11.48
2019-02-22T02:22:50.997Z,-11.53
2019-02-22T02:23:50.906Z,-11.55
2019-02-22T02:24:50.935Z,-11.53
2019-02-22T02:26:02.053Z,-11.55
2019-02-22T02:26:50.932Z,-11.68
2019-02-22T02:27:50.870Z,-11.58
2019-02-22T02:28:51.744Z,-11.55
2019-02-22T02:29:50.864Z,-11.66
2019-02-22T02:30:51.052Z,-11.65
2019-02-22T02:31:50.824Z,-11.58
2019-02-22T02:32:50.821Z,-11.65
2019-02-22T02:33:50.829Z,-11.55
2019-02-22T02:34:50.801Z,-11.61
2019-02-22T02:35:50.790Z,-11.61
2019-02-22T02:36:50.794Z,-11.65
2019-02-22T02:37:50.769Z,-11.60
2019-02-22T02:38:50.798Z,-11.65
2019-02-22T02:39:50.750Z,-11.69
2019-02-22T02:40:50.739Z,-11.61
2019-02-22T02:41:50.725Z,-11.54
2019-02-22T02:42:50.764Z,-11.55
2019-02-22T02:43:50.702Z,-11.64
2019-02-22T02:44:50.723Z,-11.64
2019-02-22T02:45:50.688Z,-11.65
2019-02-22T02:46:50.672Z,-11.65
2019-02-22T02:47:51.540Z,-11.60
2019-02-22T02:48:50.677Z,-11.51
2019-02-22T02:49:50.651Z,-11.53
2019-02-22T02:50:50.641Z,-11.50
2019-02-22T02:51:50.647Z,-11.55
2019-02-22T02:52:50.628Z,-11.51
2019-02-22T02:53:50.605Z,-11.53
2019-02-22T02:54:50.630Z,-11.54
2019-02-22T02:55:50.581Z,-11.60
2019-02-22T02:57:01.838Z,-11.65
2019-02-22T02:57:50.570Z,-11.55
2019-02-22T02:58:50.554Z,-11.54
2019-02-22T02:59:50.557Z,-11.58
2019-02-22T03:00:50.578Z,-11.68
2019-02-22T03:01:50.559Z,-11.61
2019-02-22T03:02:50.517Z,-11.66
2019-02-22T03:03:50.510Z,-11.69
2019-02-22T03:04:50.517Z,-11.64
2019-02-22T03:05:50.490Z,-11.61
2019-02-22T03:06:50.602Z,-11.65
2019-02-22T03:07:50.465Z,-11.61
2019-02-22T03:08:50.461Z,-11.60
2019-02-22T03:09:50.464Z,-11.69
2019-02-22T03:10:50.436Z,-11.65
2019-02-22T03:11:50.428Z,-11.58
2019-02-22T03:12:50.581Z,-11.61
2019-02-22T03:13:50.403Z,-11.61
2019-02-22T03:14:50.400Z,-11.57
2019-02-22T03:15:50.384Z,-11.64
2019-02-22T03:16:50.400Z,-11.61
2019-02-22T03:17:50.370Z,-11.69
2019-02-22T03:18:50.390Z,-11.71
2019-02-22T03:19:50.343Z,-11.65
2019-02-22T03:20:50.343Z,-11.76
2019-02-22T03:21:50.327Z,-11.68
2019-02-22T03:22:50.324Z,-11.84
2019-02-22T03:23:50.311Z,-11.84
2019-02-22T03:24:53.608Z,-11.76
2019-02-22T03:25:50.292Z,-11.84
2019-02-22T03:26:50.280Z,-11.75
2019-02-22T03:28:00.905Z,-11.83
2019-02-22T03:28:50.256Z,-11.83
2019-02-22T03:29:50.242Z,-11.69
2019-02-22T03:30:50.445Z,-11.74
2019-02-22T03:31:50.240Z,-11.82
2019-02-22T03:32:50.217Z,-11.82
2019-02-22T03:33:50.237Z,-11.82
2019-02-22T03:34:50.199Z,-11.83
2019-02-22T03:35:50.185Z,-11.83
2019-02-22T03:36:50.240Z,-11.87
2019-02-22T03:37:50.168Z,-11.92
2019-02-22T03:38:50.157Z,-11.89
2019-02-22T03:39:50.146Z,-11.90
2019-02-22T03:40:50.131Z,-11.89
2019-02-22T03:41:50.143Z,-11.90
2019-02-22T03:42:50.151Z,-11.93
2019-02-22T03:43:50.107Z,-11.90
2019-02-22T03:44:50.093Z,-11.89
2019-02-22T03:45:50.089Z,-11.93
2019-02-22T03:46:50.071Z,-11.87
2019-02-22T03:47:50.081Z,-11.97
2019-02-22T03:48:50.088Z,-11.90
2019-02-22T03:49:50.041Z,-11.89
2019-02-22T03:50:50.033Z,-11.90
2019-02-22T03:51:50.038Z,-11.94
2019-02-22T03:52:50.019Z,-11.86
2019-02-22T03:53:50.147Z,-11.92
2019-02-22T03:54:50.007Z,-11.90
2019-02-22T03:55:49.991Z,-11.92
2019-02-22T03:56:49.982Z,-11.93
2019-02-22T03:57:49.967Z,-11.93
2019-02-22T03:59:00.650Z,-11.89
2019-02-22T03:59:51.151Z,-11.92
2019-02-22T04:00:49.936Z,-11.86
2019-02-22T04:01:49.930Z,-11.94
2019-02-22T04:02:49.925Z,-11.90
2019-02-22T04:03:49.956Z,-11.93
2019-02-22T04:04:49.920Z,-11.93
2019-02-22T04:05:49.891Z,-12.03
2019-02-22T04:06:49.900Z,-12.04
2019-02-22T04:07:49.886Z,-11.92
2019-02-22T04:08:49.871Z,-11.93
2019-02-22T04:09:49.874Z,-11.97
2019-02-22T04:10:50.013Z,-11.90
2019-02-22T04:11:49.825Z,-11.79
2019-02-22T04:12:49.821Z,-11.92
2019-02-22T04:13:49.808Z,-11.90
2019-02-22T04:14:49.812Z,-11.96
2019-02-22T04:15:49.785Z,-11.97
2019-02-22T04:16:49.818Z,-12.01
2019-02-22T04:17:49.768Z,-11.90
2019-02-22T04:18:49.758Z,-12.00
2019-02-22T04:19:49.755Z,-11.90
2019-02-22T04:20:49.768Z,-12.03
2019-02-22T04:21:49.723Z,-11.94
2019-02-22T04:22:49.756Z,-12.00
2019-02-22T04:23:49.714Z,-11.94
2019-02-22T04:24:49.697Z,-12.04
2019-02-22T04:25:49.689Z,-12.00
2019-02-22T04:26:49.691Z,-11.97
2019-02-22T04:27:49.666Z,-11.89
2019-02-22T04:28:49.658Z,-11.97
2019-02-22T04:30:02.109Z,-11.89
2019-02-22T04:30:49.631Z,-11.96
2019-02-22T04:31:49.624Z,-11.93
2019-02-22T04:32:49.611Z,-11.93
2019-02-22T04:33:49.670Z,-11.96
2019-02-22T04:34:49.592Z,-11.97
2019-02-22T04:35:49.582Z,-12.01
2019-02-22T04:36:49.605Z,-12.00
2019-02-22T04:37:49.563Z,-12.05
2019-02-22T04:38:49.552Z,-12.03
2019-02-22T04:39:49.582Z,-11.96
2019-02-22T04:40:49.537Z,-12.05
2019-02-22T04:41:57.701Z,-12.04
2019-02-22T04:42:50.517Z,-11.92
2019-02-22T04:43:49.504Z,-11.94
2019-02-22T04:44:49.498Z,-12.05
2019-02-22T04:45:49.500Z,-12.07
2019-02-22T04:46:49.478Z,-12.08
2019-02-22T04:47:49.482Z,-12.01
2019-02-22T04:48:49.459Z,-12.03
2019-02-22T04:49:49.441Z,-12.05
2019-02-22T04:50:49.443Z,-12.04
2019-02-22T04:51:49.446Z,-12.01
2019-02-22T04:52:49.421Z,-12.04
2019-02-22T04:53:49.427Z,-12.04
2019-02-22T04:54:49.396Z,-11.94
2019-02-22T04:55:49.383Z,-11.97
2019-02-22T04:56:49.371Z,-12.10
2019-02-22T04:57:49.402Z,-12.13
2019-02-22T04:58:49.353Z,-12.13
2019-02-22T04:59:49.370Z,-12.19
2019-02-22T05:00:59.219Z,-12.11
2019-02-22T05:01:49.319Z,-12.11
2019-02-22T05:02:49.330Z,-12.14
2019-02-22T05:03:49.334Z,-12.14
2019-02-22T05:04:49.299Z,-12.14
2019-02-22T05:05:49.287Z,-12.10
2019-02-22T05:06:49.355Z,-12.10
2019-02-22T05:07:49.269Z,-12.14
2019-02-22T05:08:49.268Z,-12.10
2019-02-22T05:09:49.267Z,-12.14
2019-02-22T05:10:49.270Z,-12.15
2019-02-22T05:11:49.221Z,-12.13
2019-02-22T05:12:49.224Z,-12.08
2019-02-22T05:13:49.219Z,-12.13
2019-02-22T05:14:49.206Z,-12.14
2019-02-22T05:15:49.194Z,-12.14
2019-02-22T05:16:49.176Z,-12.11
2019-02-22T05:17:49.197Z,-12.15
2019-02-22T05:18:49.171Z,-12.14
2019-02-22T05:19:49.149Z,-12.14
2019-02-22T05:20:49.184Z,-12.05
2019-02-22T05:21:49.146Z,-12.14
2019-02-22T05:22:49.117Z,-12.19
2019-02-22T05:23:49.109Z,-12.17
2019-02-22T05:24:49.094Z,-12.22
2019-02-22T05:25:49.129Z,-12.15
2019-02-22T05:26:49.076Z,-12.04
2019-02-22T05:27:49.107Z,-12.11
2019-02-22T05:28:49.058Z,-12.13
2019-02-22T05:29:49.055Z,-12.14
2019-02-22T05:30:49.040Z,-12.11
2019-02-22T05:31:59.491Z,-12.11
2019-02-22T05:32:49.017Z,-12.13
2019-02-22T05:33:49.178Z,-12.10
2019-02-22T05:34:49.001Z,-12.13
2019-02-22T05:35:48.983Z,-12.10
2019-02-22T05:36:48.974Z,-12.01
2019-02-22T05:37:48.966Z,-12.04
2019-02-22T05:38:48.954Z,-11.94
2019-02-22T05:39:48.973Z,-12.05
2019-02-22T05:40:48.943Z,-12.00
2019-02-22T05:41:48.936Z,-12.01
2019-02-22T05:42:49.037Z,-11.96
2019-02-22T05:43:48.902Z,-11.93
2019-02-22T05:44:48.893Z,-11.97
2019-02-22T05:45:48.927Z,-11.94
2019-02-22T05:46:59.663Z,-12.07
2019-02-22T05:47:49.873Z,-12.07
2019-02-22T05:48:48.878Z,-12.01
2019-02-22T05:49:48.849Z,-11.93
2019-02-22T05:50:48.832Z,-12.00
2019-02-22T05:51:48.871Z,-12.04
2019-02-22T05:52:48.811Z,-12.03
2019-02-22T05:53:48.812Z,-11.93
2019-02-22T05:54:48.801Z,-11.87
2019-02-22T05:55:48.822Z,-11.94
2019-02-22T05:56:48.795Z,-11.89
2019-02-22T05:57:48.776Z,-11.87
2019-02-22T05:58:48.760Z,-11.83
2019-02-22T05:59:48.850Z,-11.86
2019-02-22T06:00:48.734Z,-11.87
2019-02-22T06:01:48.728Z,-11.86
2019-02-22T06:02:59.224Z,-11.83
2019-02-22T06:03:48.701Z,-11.82
2019-02-22T06:04:48.700Z,-11.83
2019-02-22T06:05:49.694Z,-11.79
2019-02-22T06:06:48.697Z,-11.79
2019-02-22T06:07:48.663Z,-11.83
2019-02-22T06:08:48.743Z,-11.78
2019-02-22T06:09:48.646Z,-11.79
2019-02-22T06:10:48.634Z,-11.72
2019-02-22T06:11:48.625Z,-11.76
2019-02-22T06:12:48.614Z,-11.71
2019-02-22T06:13:48.604Z,-11.69
2019-02-22T06:14:48.640Z,-11.69
2019-02-22T06:15:48.584Z,-11.57
2019-02-22T06:16:48.619Z,-11.61
2019-02-22T06:17:48.567Z,-11.72
2019-02-22T06:18:48.576Z,-11.66
2019-02-22T06:19:48.597Z,-11.66
2019-02-22T06:20:48.569Z,-11.61
2019-02-22T06:21:48.522Z,-11.54
2019-02-22T06:22:48.524Z,-11.64
2019-02-22T06:23:48.503Z,-11.61
2019-02-22T06:24:48.500Z,-11.55
2019-02-22T06:25:48.513Z,-11.55
2019-02-22T06:26:48.650Z,-11.57
2019-02-22T06:27:48.464Z,-11.51
2019-02-22T06:28:48.454Z,-11.55
2019-02-22T06:29:49.729Z,-11.51
2019-02-22T06:30:48.438Z,-11.50
2019-02-22T06:31:48.422Z,-11.54
2019-02-22T06:32:48.424Z,-11.51
2019-02-22T06:33:58.917Z,-11.47
2019-02-22T06:34:48.396Z,-11.47
2019-02-22T06:35:48.389Z,-11.37
2019-02-22T06:37:00.824Z,-11.32
2019-02-22T06:37:49.435Z,-11.33
2019-02-22T06:38:48.362Z,-11.29
2019-02-22T06:39:48.350Z,-11.30
2019-02-22T06:40:48.447Z,-11.23
2019-02-22T06:41:48.332Z,-11.26
2019-02-22T06:42:48.313Z,-11.33
2019-02-22T06:43:48.354Z,-11.32
2019-02-22T06:44:48.301Z,-11.23
2019-02-22T06:45:48.332Z,-11.33
2019-02-22T06:46:48.279Z,-11.26
2019-02-22T06:47:48.263Z,-11.29
2019-02-22T06:48:48.254Z,-11.16
2019-02-22T06:49:48.281Z,-11.15
2019-02-22T06:50:48.237Z,-11.21
2019-02-22T06:51:48.234Z,-11.23
2019-02-22T06:52:48.215Z,-11.18
2019-02-22T06:53:48.203Z,-11.15
2019-02-22T06:54:48.196Z,-11.18
2019-02-22T06:55:48.228Z,-11.13
2019-02-22T06:56:48.184Z,-11.16
2019-02-22T06:57:48.206Z,-11.08
2019-02-22T06:58:48.160Z,-11.09
2019-02-22T06:59:48.511Z,-10.98
2019-02-22T07:00:48.139Z,-11.08
2019-02-22T07:01:50.051Z,-10.95
2019-02-22T07:02:48.140Z,-10.95
2019-02-22T07:03:48.118Z,-10.86
2019-02-22T07:04:58.350Z,-10.95
2019-02-22T07:05:48.094Z,-10.94
2019-02-22T07:06:48.074Z,-10.91
2019-02-22T07:07:48.111Z,-10.94
2019-02-22T07:08:48.092Z,-10.94
2019-02-22T07:09:48.088Z,-10.90
2019-02-22T07:10:48.120Z,-10.82
2019-02-22T07:11:48.037Z,-10.82
2019-02-22T07:12:56.525Z,-10.72
2019-02-22T07:13:49.100Z,-10.69
2019-02-22T07:14:47.989Z,-10.75
2019-02-22T07:15:48.033Z,-10.68
2019-02-22T07:16:48.174Z,-10.60
2019-02-22T07:17:47.965Z,-10.60
2019-02-22T07:18:49.894Z,-10.65
2019-02-22T07:19:48.237Z,-10.54
2019-02-22T07:20:48.046Z,-10.58
2019-02-22T07:21:52.450Z,-10.57
2019-02-22T07:22:48.909Z,-10.44
2019-02-22T07:23:47.899Z,-10.43
2019-02-22T07:24:48.079Z,-10.46
2019-02-22T07:25:48.070Z,-10.41
2019-02-22T07:26:48.075Z,-10.44
2019-02-22T07:27:47.858Z,-10.25
2019-02-22T07:28:47.848Z,-10.30
2019-02-22T07:29:48.071Z,-10.33
2019-02-22T07:30:48.075Z,-10.28
2019-02-22T07:31:48.078Z,-10.30
2019-02-22T07:32:48.165Z,-10.31
2019-02-22T07:33:47.806Z,-10.25
2019-02-22T07:34:47.801Z,-10.25
2019-02-22T07:35:57.804Z,-10.23
2019-02-22T07:36:48.186Z,-10.15
2019-02-22T07:37:47.760Z,-10.16
2019-02-22T07:38:48.064Z,-10.10
2019-02-22T07:39:47.776Z,-10.18
2019-02-22T07:40:48.053Z,-10.28
2019-02-22T07:41:48.044Z,-10.15
2019-02-22T07:42:47.708Z,-10.15
2019-02-22T07:43:47.705Z,-10.15
2019-02-22T07:44:47.755Z,-10.12
2019-02-22T07:45:47.683Z,-10.13
2019-02-22T07:46:47.670Z,-10.19
2019-02-22T07:47:47.662Z,-10.23
2019-02-22T07:48:47.646Z,-10.15
2019-02-22T07:49:47.664Z,-10.23
2019-02-22T07:50:56.881Z,-10.08
2019-02-22T07:51:48.617Z,-10.13
2019-02-22T07:52:47.760Z,-10.30
2019-02-22T07:53:47.600Z,-10.08
2019-02-22T07:54:47.589Z,-10.12
2019-02-22T07:55:47.606Z,-10.07
2019-02-22T07:56:47.565Z,-10.10
2019-02-22T07:57:47.560Z,-10.02
2019-02-22T07:58:47.547Z,-10.04
2019-02-22T07:59:47.538Z,-10.02
2019-02-22T08:00:47.524Z,-9.98
2019-02-22T08:01:48.292Z,-9.95
2019-02-22T08:02:47.502Z,-9.80
2019-02-22T08:03:47.494Z,-9.84
2019-02-22T08:04:47.498Z,-9.72
2019-02-22T08:05:47.490Z,-9.68
2019-02-22T08:07:00.280Z,-9.79
2019-02-22T08:07:54.450Z,-9.72
2019-02-22T08:08:48.430Z,-9.74
2019-02-22T08:09:47.430Z,-9.74
2019-02-22T08:10:47.562Z,-9.71
2019-02-22T08:11:48.161Z,-9.72
2019-02-22T08:12:47.598Z,-9.61
2019-02-22T08:13:47.397Z,-9.63
2019-02-22T08:14:47.377Z,-9.52
2019-02-22T08:15:47.380Z,-9.52
2019-02-22T08:16:47.361Z,-9.40
2019-02-22T08:17:47.353Z,-9.39
2019-02-22T08:18:47.383Z,-9.37
2019-02-22T08:19:55.534Z,-9.41
2019-02-22T08:20:47.320Z,-9.48
2019-02-22T08:21:54.311Z,-9.37
2019-02-22T08:22:47.350Z,-9.33
2019-02-22T08:23:54.383Z,-9.25
2019-02-22T08:24:47.276Z,-9.12
2019-02-22T08:25:47.359Z,-9.11
2019-02-22T08:26:47.253Z,-9.04
2019-02-22T08:27:54.492Z,-8.94
2019-02-22T08:28:47.235Z,-9.01
2019-02-22T08:29:47.294Z,-8.89
2019-02-22T08:30:47.222Z,-8.75
2019-02-22T08:31:47.204Z,-8.31
2019-02-22T08:32:48.108Z,-7.71
2019-02-22T08:33:47.462Z,-6.87
2019-02-22T08:34:47.215Z,-5.86
2019-02-22T08:35:47.196Z,-5.48
2019-02-22T08:36:47.156Z,-5.32
2019-02-22T08:37:47.147Z,-5.29
2019-02-22T08:38:47.135Z,-4.67
2019-02-22T08:39:58.304Z,-4.56
2019-02-22T08:40:48.160Z,-4.58
2019-02-22T08:41:47.106Z,-4.40
2019-02-22T08:42:47.087Z,-3.88
2019-02-22T08:43:47.078Z,-3.85
2019-02-22T08:44:47.074Z,-3.41
2019-02-22T08:45:47.064Z,-3.41
2019-02-22T08:46:47.061Z,-3.79
2019-02-22T08:47:47.038Z,-3.48
2019-02-22T08:48:47.063Z,-3.10
2019-02-22T08:49:47.011Z,-2.88
2019-02-22T08:50:47.009Z,-2.70
2019-02-22T08:51:47.052Z,-2.21
2019-02-22T08:52:47.082Z,-1.76
2019-02-22T08:53:46.966Z,-1.95
2019-02-22T08:54:57.933Z,-2.40
2019-02-22T08:55:46.943Z,-1.94
2019-02-22T08:56:46.938Z,-1.92
2019-02-22T08:57:53.928Z,-1.91
2019-02-22T08:58:46.911Z,-2.02
2019-02-22T08:59:46.915Z,-1.82
2019-02-22T09:00:47.021Z,-1.51
2019-02-22T09:01:47.116Z,-1.92
2019-02-22T09:02:46.882Z,-1.64
2019-02-22T09:03:50.564Z,-1.59
2019-02-22T09:04:47.065Z,-1.49
2019-02-22T09:05:46.842Z,-2.08
2019-02-22T09:06:47.151Z,-1.62
2019-02-22T09:07:47.084Z,-1.22
2019-02-22T09:08:47.115Z,-1.17
2019-02-22T09:09:46.813Z,-1.13
2019-02-22T09:10:46.782Z,-0.82
2019-02-22T09:11:46.787Z,-0.55
2019-02-22T09:12:47.141Z,-0.76
2019-02-22T09:13:46.753Z,-1.07
2019-02-22T09:14:46.742Z,-0.95
2019-02-22T09:15:46.732Z,-0.11
2019-02-22T09:16:47.042Z,-0.46
2019-02-22T09:17:46.707Z,-0.40
2019-02-22T09:18:47.049Z,-0.80
2019-02-22T09:19:46.688Z,-0.46
2019-02-22T09:20:46.679Z,-0.72
2019-02-22T09:21:46.664Z,-0.65
2019-02-22T09:22:46.669Z,-0.29
2019-02-22T09:23:47.381Z,0.49
2019-02-22T09:24:46.665Z,-0.07
2019-02-22T09:25:46.613Z,0.20
2019-02-22T09:26:46.610Z,0.28
2019-02-22T09:27:46.590Z,0.57
2019-02-22T09:28:57.117Z,0.36
2019-02-22T09:29:57.831Z,0.08
2019-02-22T09:30:47.601Z,0.41
2019-02-22T09:31:46.550Z,0.33
2019-02-22T09:32:46.541Z,0.18
2019-02-22T09:33:46.535Z,-0.03
2019-02-22T09:34:46.519Z,0.18
2019-02-22T09:35:46.529Z,0.33
2019-02-22T09:36:46.695Z,0.62
2019-02-22T09:37:46.487Z,1.22
2019-02-22T09:38:46.477Z,1.32
2019-02-22T09:39:46.470Z,1.26
2019-02-22T09:40:46.455Z,1.51
2019-02-22T09:41:46.456Z,1.73
2019-02-22T09:42:46.606Z,1.80
2019-02-22T09:43:54.742Z,1.79
2019-02-22T09:44:47.406Z,1.06
2019-02-22T09:45:46.413Z,0.87
2019-02-22T09:46:46.417Z,0.44
2019-02-22T09:47:46.913Z,1.22
2019-02-22T09:48:46.441Z,1.86
2019-02-22T09:49:46.352Z,1.99
2019-02-22T09:50:46.341Z,2.05
2019-02-22T09:51:46.336Z,0.73
2019-02-22T09:52:46.326Z,1.24
2019-02-22T09:53:46.400Z,1.91
2019-02-22T09:54:46.344Z,2.39
2019-02-22T09:55:46.292Z,2.52
2019-02-22T09:56:46.279Z,2.14
2019-02-22T09:57:46.273Z,2.21
2019-02-22T09:58:46.254Z,1.59
2019-02-22T09:59:56.995Z,2.02
2019-02-22T10:00:46.234Z,2.24
2019-02-22T10:01:46.225Z,2.42
2019-02-22T10:02:46.209Z,2.57
2019-02-22T10:03:46.250Z,2.95
2019-02-22T10:04:54.682Z,3.13
2019-02-22T10:05:47.360Z,3.72
2019-02-22T10:06:46.180Z,3.80
2019-02-22T10:07:46.158Z,3.03
2019-02-22T10:08:46.146Z,3.17
2019-02-22T10:09:46.144Z,3.55
2019-02-22T10:10:46.129Z,3.55
2019-02-22T10:11:46.167Z,2.85
2019-02-22T10:12:46.105Z,2.43
2019-02-22T10:13:46.099Z,2.84
2019-02-22T10:14:46.099Z,3.17
2019-02-22T10:15:46.081Z,3.79
2019-02-22T10:16:46.070Z,3.15
2019-02-22T10:17:46.075Z,3.80
2019-02-22T10:18:46.040Z,4.14
2019-02-22T10:19:46.051Z,3.98
2019-02-22T10:20:46.031Z,3.75
2019-02-22T10:21:46.034Z,4.05
2019-02-22T10:22:46.155Z,3.66
2019-02-22T10:23:46.165Z,3.18
2019-02-22T10:24:45.987Z,3.48
2019-02-22T10:25:45.965Z,4.02
2019-02-22T10:26:45.973Z,4.91
2019-02-22T10:27:45.993Z,4.12
2019-02-22T10:28:45.942Z,4.51
2019-02-22T10:29:45.968Z,3.94
2019-02-22T10:30:56.732Z,4.00
2019-02-22T10:31:45.910Z,3.33
2019-02-22T10:32:45.895Z,3.14
2019-02-22T10:33:45.888Z,3.03
2019-02-22T10:34:45.875Z,2.69
2019-02-22T10:35:45.913Z,3.00
2019-02-22T10:36:45.851Z,3.62
2019-02-22T10:37:45.843Z,4.16
2019-02-22T10:38:45.835Z,4.88
2019-02-22T10:39:45.826Z,4.44
2019-02-22T10:40:45.812Z,4.02
2019-02-22T10:41:45.844Z,4.41
2019-02-22T10:42:45.787Z,4.15
2019-02-22T10:43:45.785Z,4.75
2019-02-22T10:44:45.773Z,5.22
2019-02-22T10:45:45.763Z,5.10
2019-02-22T10:46:45.774Z,5.00
2019-02-22T10:47:45.803Z,4.70
2019-02-22T10:48:45.726Z,4.84
2019-02-22T10:49:45.717Z,5.65
2019-02-22T10:50:45.707Z,5.61
2019-02-22T10:51:45.704Z,5.57
2019-02-22T10:52:45.690Z,5.25
2019-02-22T10:53:45.846Z,5.12
2019-02-22T10:54:45.687Z,4.88
2019-02-22T10:55:45.663Z,4.69
2019-02-22T10:56:45.649Z,4.65
2019-02-22T10:57:45.641Z,5.61
2019-02-22T10:58:45.632Z,3.75
2019-02-22T10:59:46.651Z,4.45
2019-02-22T11:00:45.623Z,5.45
2019-02-22T11:01:56.531Z,5.13
2019-02-22T11:02:45.587Z,5.48
2019-02-22T11:03:45.574Z,5.43
2019-02-22T11:04:45.567Z,4.75
2019-02-22T11:05:45.598Z,5.10
2019-02-22T11:06:45.560Z,5.25
2019-02-22T11:07:45.551Z,5.20
2019-02-22T11:08:45.525Z,4.24
2019-02-22T11:09:45.515Z,4.89
2019-02-22T11:10:45.512Z,5.17
2019-02-22T11:11:45.537Z,5.33
2019-02-22T11:12:45.486Z,4.99
2019-02-22T11:13:45.487Z,2.81
2019-02-22T11:14:45.477Z,1.88
2019-02-22T11:15:45.475Z,2.87
2019-02-22T11:16:45.444Z,4.00
2019-02-22T11:17:45.474Z,5.30
2019-02-22T11:18:45.421Z,5.57
2019-02-22T11:19:45.410Z,5.97
2019-02-22T11:20:45.399Z,5.03
2019-02-22T11:21:45.390Z,4.73
2019-02-22T11:22:45.395Z,5.46
2019-02-22T11:23:45.421Z,5.68
2019-02-22T11:24:45.362Z,6.21
2019-02-22T11:25:45.358Z,5.67
2019-02-22T11:26:45.342Z,5.20
2019-02-22T11:27:45.326Z,4.75
2019-02-22T11:28:45.315Z,3.83
2019-02-22T11:29:45.343Z,2.67
2019-02-22T11:30:45.309Z,3.20
2019-02-22T11:31:45.288Z,2.23
2019-02-22T11:32:55.238Z,2.66
2019-02-22T11:33:45.270Z,2.03
2019-02-22T11:34:45.258Z,2.56
2019-02-22T11:35:45.290Z,3.55
2019-02-22T11:36:45.237Z,3.58
2019-02-22T11:37:45.222Z,4.26
2019-02-22T11:38:45.214Z,4.42
2019-02-22T11:39:45.199Z,4.47
2019-02-22T11:40:45.191Z,5.28
2019-02-22T11:41:52.602Z,4.88
2019-02-22T11:42:45.167Z,4.88
2019-02-22T11:43:52.149Z,3.47
2019-02-22T11:44:45.149Z,3.29
2019-02-22T11:45:45.135Z,3.47
2019-02-22T11:46:45.127Z,3.61
2019-02-22T11:47:45.167Z,4.29
2019-02-22T11:48:45.113Z,4.73
2019-02-22T11:49:45.094Z,5.46
2019-02-22T11:50:45.091Z,4.15
2019-02-22T11:51:45.074Z,4.88
2019-02-22T11:52:45.071Z,4.58
2019-02-22T11:53:45.167Z,4.20
2019-02-22T11:54:45.049Z,3.62
2019-02-22T11:55:45.052Z,4.02
2019-02-22T11:56:45.021Z,4.96
2019-02-22T11:57:45.051Z,5.67
2019-02-22T11:58:45.005Z,5.42
2019-02-22T11:59:45.029Z,3.43
2019-02-22T12:00:44.991Z,4.27
2019-02-22T12:01:44.977Z,5.21
2019-02-22T12:02:45.616Z,5.39
2019-02-22T12:03:44.960Z,5.82
2019-02-22T12:04:44.963Z,6.48
2019-02-22T12:05:44.977Z,6.31
2019-02-22T12:06:44.920Z,5.46
2019-02-22T12:07:45.618Z,4.06
2019-02-22T12:08:44.902Z,4.29
2019-02-22T12:09:44.899Z,4.18
2019-02-22T12:10:44.887Z,4.45
2019-02-22T12:11:44.910Z,4.66
2019-02-22T12:12:44.884Z,5.03
2019-02-22T12:13:44.850Z,5.82
2019-02-22T12:14:54.991Z,6.41
2019-02-22T12:15:44.823Z,6.37
2019-02-22T12:16:44.825Z,6.34
2019-02-22T12:17:44.840Z,6.37
2019-02-22T12:18:44.801Z,6.34
2019-02-22T12:19:44.781Z,5.96
2019-02-22T12:20:44.771Z,6.11
2019-02-22T12:21:44.769Z,5.58
2019-02-22T12:22:52.199Z,5.15
2019-02-22T12:23:44.745Z,5.15
2019-02-22T12:24:44.737Z,5.81
2019-02-22T12:25:51.714Z,5.99
2019-02-22T12:26:52.004Z,5.85
2019-02-22T12:27:44.738Z,5.89
2019-02-22T12:28:44.700Z,6.25
2019-02-22T12:29:44.677Z,6.06
2019-02-22T12:30:44.670Z,6.11
2019-02-22T12:31:44.657Z,6.41
2019-02-22T12:32:44.653Z,6.46
2019-02-22T12:33:51.824Z,6.46
2019-02-22T12:34:44.627Z,7.03
2019-02-22T12:35:44.619Z,5.96
2019-02-22T12:36:44.608Z,6.08
2019-02-22T12:37:51.593Z,6.09
2019-02-22T12:38:44.595Z,5.93
2019-02-22T12:39:44.614Z,6.46
2019-02-22T12:40:44.574Z,6.41
2019-02-22T12:41:44.623Z,6.09
2019-02-22T12:42:44.552Z,6.22
2019-02-22T12:43:44.552Z,6.88